sensor_id;sensor_type;location;lat;lon;timestamp;pressure;altitude;pressure_sealevel;temperature;humidity
80627;BME280;69982;51.758;5.784;2023-06-22T00:00:53;101852.30;;;21.61;59.67
80627;BME280;69982;51.758;5.784;2023-06-22T00:03:30;101851.33;;;21.58;59.75
80627;BME280;69982;51.758;5.784;2023-06-22T00:05:57;101847.07;;;21.54;59.86
80627;BME280;69982;51.758;5.784;2023-06-22T00:08:24;101844.61;;;21.49;60.01
80627;BME280;69982;51.758;5.784;2023-06-22T00:10:50;101842.88;;;21.47;60.16
80627;BME280;69982;51.758;5.784;2023-06-22T00:13:17;101841.48;;;21.47;59.91
80627;BME280;69982;51.758;5.784;2023-06-22T00:15:44;101846.53;;;21.49;59.93
80627;BME280;69982;51.758;5.784;2023-06-22T00:18:10;101849.50;;;21.53;60.11
80627;BME280;69982;51.758;5.784;2023-06-22T00:20:37;101848.82;;;21.56;59.94
80627;BME280;69982;51.758;5.784;2023-06-22T00:23:05;101838.73;;;21.58;60.21
80627;BME280;69982;51.758;5.784;2023-06-22T00:25:36;101830.91;;;21.60;60.02
80627;BME280;69982;51.758;5.784;2023-06-22T00:28:03;101840.17;;;21.60;60.08
80627;BME280;69982;51.758;5.784;2023-06-22T00:30:31;101846.23;;;21.59;60.02
80627;BME280;69982;51.758;5.784;2023-06-22T00:32:58;101848.02;;;21.57;60.23
80627;BME280;69982;51.758;5.784;2023-06-22T00:35:26;101844.56;;;21.52;60.27
80627;BME280;69982;51.758;5.784;2023-06-22T00:37:59;101849.89;;;21.47;60.49
80627;BME280;69982;51.758;5.784;2023-06-22T00:40:31;101850.17;;;21.42;60.60
80627;BME280;69982;51.758;5.784;2023-06-22T00:42:58;101851.92;;;21.39;60.74
80627;BME280;69982;51.758;5.784;2023-06-22T00:45:25;101851.04;;;21.35;60.74
80627;BME280;69982;51.758;5.784;2023-06-22T00:47:54;101850.20;;;21.32;60.74
80627;BME280;69982;51.758;5.784;2023-06-22T00:50:23;101851.84;;;21.27;60.65
80627;BME280;69982;51.758;5.784;2023-06-22T00:52:57;101854.81;;;21.23;60.76
80627;BME280;69982;51.758;5.784;2023-06-22T00:55:25;101850.84;;;21.19;60.92
80627;BME280;69982;51.758;5.784;2023-06-22T00:57:52;101847.30;;;21.16;61.22
80627;BME280;69982;51.758;5.784;2023-06-22T01:00:24;101841.82;;;21.15;60.96
80627;BME280;69982;51.758;5.784;2023-06-22T01:02:52;101845.86;;;21.14;61.16
80627;BME280;69982;51.758;5.784;2023-06-22T01:05:20;101844.40;;;21.12;61.18
80627;BME280;69982;51.758;5.784;2023-06-22T01:16:02;101834.84;;;21.06;60.93
80627;BME280;69982;51.758;5.784;2023-06-22T01:18:31;101827.33;;;21.02;60.91
80627;BME280;69982;51.758;5.784;2023-06-22T01:21:00;101825.41;;;20.98;61.08
80627;BME280;69982;51.758;5.784;2023-06-22T01:26:18;101830.02;;;20.91;61.53
80627;BME280;69982;51.758;5.784;2023-06-22T01:28:50;101840.00;;;20.86;61.70
80627;BME280;69982;51.758;5.784;2023-06-22T01:31:20;101835.37;;;20.81;61.93
80627;BME280;69982;51.758;5.784;2023-06-22T01:33:51;101826.37;;;20.72;61.75
80627;BME280;69982;51.758;5.784;2023-06-22T01:36:18;101830.75;;;20.73;61.78
80627;BME280;69982;51.758;5.784;2023-06-22T01:38:47;101838.72;;;20.73;61.75
80627;BME280;69982;51.758;5.784;2023-06-22T01:41:14;101835.63;;;20.74;62.02
80627;BME280;69982;51.758;5.784;2023-06-22T01:43:42;101829.59;;;20.73;61.98
80627;BME280;69982;51.758;5.784;2023-06-22T01:46:09;101830.11;;;20.73;61.81
80627;BME280;69982;51.758;5.784;2023-06-22T01:48:36;101829.64;;;20.72;61.81
80627;BME280;69982;51.758;5.784;2023-06-22T01:51:04;101827.72;;;20.67;62.06
80627;BME280;69982;51.758;5.784;2023-06-22T01:53:31;101828.81;;;20.64;61.99
80627;BME280;69982;51.758;5.784;2023-06-22T01:55:57;101831.40;;;20.63;62.38
80627;BME280;69982;51.758;5.784;2023-06-22T01:58:27;101824.38;;;20.57;62.29
80627;BME280;69982;51.758;5.784;2023-06-22T02:01:06;101827.02;;;20.57;62.38
80627;BME280;69982;51.758;5.784;2023-06-22T02:03:55;101829.33;;;20.53;62.76
80627;BME280;69982;51.758;5.784;2023-06-22T02:06:31;101826.89;;;20.47;62.75
80627;BME280;69982;51.758;5.784;2023-06-22T02:09:09;101824.59;;;20.41;62.71
80627;BME280;69982;51.758;5.784;2023-06-22T02:11:41;101824.70;;;20.36;62.75
80627;BME280;69982;51.758;5.784;2023-06-22T02:14:08;101819.16;;;20.31;62.74
80627;BME280;69982;51.758;5.784;2023-06-22T02:16:35;101825.03;;;20.32;62.79
80627;BME280;69982;51.758;5.784;2023-06-22T02:19:02;101818.58;;;20.33;62.60
80627;BME280;69982;51.758;5.784;2023-06-22T02:21:32;101816.60;;;20.36;62.67
80627;BME280;69982;51.758;5.784;2023-06-22T02:23:59;101816.00;;;20.37;62.69
80627;BME280;69982;51.758;5.784;2023-06-22T02:26:26;101814.44;;;20.40;62.75
80627;BME280;69982;51.758;5.784;2023-06-22T02:28:53;101810.33;;;20.42;62.59
80627;BME280;69982;51.758;5.784;2023-06-22T02:31:19;101807.05;;;20.41;62.78
80627;BME280;69982;51.758;5.784;2023-06-22T02:33:46;101807.02;;;20.42;63.18
80627;BME280;69982;51.758;5.784;2023-06-22T02:36:14;101802.16;;;20.41;63.17
80627;BME280;69982;51.758;5.784;2023-06-22T02:38:41;101802.27;;;20.37;63.13
80627;BME280;69982;51.758;5.784;2023-06-22T02:41:15;101804.54;;;20.35;63.33
80627;BME280;69982;51.758;5.784;2023-06-22T02:43:45;101803.59;;;20.30;63.17
80627;BME280;69982;51.758;5.784;2023-06-22T02:46:13;101811.05;;;20.29;63.40
80627;BME280;69982;51.758;5.784;2023-06-22T02:48:40;101802.30;;;20.26;63.67
80627;BME280;69982;51.758;5.784;2023-06-22T02:51:07;101799.99;;;20.23;63.63
80627;BME280;69982;51.758;5.784;2023-06-22T02:53:34;101797.61;;;20.21;63.62
80627;BME280;69982;51.758;5.784;2023-06-22T02:56:04;101797.48;;;20.21;63.70
80627;BME280;69982;51.758;5.784;2023-06-22T02:58:33;101796.41;;;20.21;63.86
80627;BME280;69982;51.758;5.784;2023-06-22T03:01:05;101794.13;;;20.21;63.75
80627;BME280;69982;51.758;5.784;2023-06-22T03:03:31;101790.74;;;20.22;63.77
80627;BME280;69982;51.758;5.784;2023-06-22T03:05:58;101784.66;;;20.20;63.78
80627;BME280;69982;51.758;5.784;2023-06-22T03:08:25;101785.39;;;20.19;63.79
80627;BME280;69982;51.758;5.784;2023-06-22T03:10:51;101784.86;;;20.17;63.82
80627;BME280;69982;51.758;5.784;2023-06-22T03:13:17;101786.17;;;20.14;63.79
80627;BME280;69982;51.758;5.784;2023-06-22T03:15:43;101787.13;;;20.08;63.76
80627;BME280;69982;51.758;5.784;2023-06-22T03:18:10;101785.52;;;20.02;63.91
80627;BME280;69982;51.758;5.784;2023-06-22T03:20:36;101774.38;;;19.94;63.99
80627;BME280;69982;51.758;5.784;2023-06-22T03:23:03;101772.20;;;19.90;64.38
80627;BME280;69982;51.758;5.784;2023-06-22T03:25:29;101771.11;;;19.83;64.41
80627;BME280;69982;51.758;5.784;2023-06-22T03:27:55;101763.27;;;19.79;64.39
80627;BME280;69982;51.758;5.784;2023-06-22T03:30:22;101760.46;;;19.76;64.50
80627;BME280;69982;51.758;5.784;2023-06-22T03:32:48;101760.67;;;19.75;64.47
80627;BME280;69982;51.758;5.784;2023-06-22T03:35:14;101760.36;;;19.73;64.63
80627;BME280;69982;51.758;5.784;2023-06-22T03:37:41;101770.62;;;19.72;64.78
80627;BME280;69982;51.758;5.784;2023-06-22T03:40:08;101774.27;;;19.71;64.56
80627;BME280;69982;51.758;5.784;2023-06-22T03:42:34;101772.47;;;19.70;64.70
80627;BME280;69982;51.758;5.784;2023-06-22T03:45:04;101772.51;;;19.69;64.93
80627;BME280;69982;51.758;5.784;2023-06-22T03:47:30;101767.73;;;19.66;65.08
80627;BME280;69982;51.758;5.784;2023-06-22T03:49:57;101764.76;;;19.61;65.20
80627;BME280;69982;51.758;5.784;2023-06-22T03:52:23;101760.34;;;19.54;65.19
80627;BME280;69982;51.758;5.784;2023-06-22T03:54:51;101759.48;;;19.51;65.46
80627;BME280;69982;51.758;5.784;2023-06-22T03:57:17;101756.59;;;19.48;65.54
80627;BME280;69982;51.758;5.784;2023-06-22T03:59:43;101756.01;;;19.44;65.65
80627;BME280;69982;51.758;5.784;2023-06-22T04:02:10;101759.58;;;19.38;65.73
80627;BME280;69982;51.758;5.784;2023-06-22T04:04:36;101760.33;;;19.36;65.96
80627;BME280;69982;51.758;5.784;2023-06-22T04:07:05;101763.54;;;19.35;66.02
80627;BME280;69982;51.758;5.784;2023-06-22T04:09:31;101762.23;;;19.35;65.99
80627;BME280;69982;51.758;5.784;2023-06-22T04:11:58;101759.92;;;19.34;66.19
80627;BME280;69982;51.758;5.784;2023-06-22T04:14:25;101758.65;;;19.33;66.11
80627;BME280;69982;51.758;5.784;2023-06-22T04:16:51;101754.53;;;19.32;66.45
80627;BME280;69982;51.758;5.784;2023-06-22T04:19:17;101756.00;;;19.31;66.60
80627;BME280;69982;51.758;5.784;2023-06-22T04:21:44;101755.41;;;19.31;66.60
80627;BME280;69982;51.758;5.784;2023-06-22T04:24:11;101758.34;;;19.33;66.91
80627;BME280;69982;51.758;5.784;2023-06-22T04:26:37;101754.05;;;19.36;66.86
80627;BME280;69982;51.758;5.784;2023-06-22T04:29:04;101752.31;;;19.42;66.76
80627;BME280;69982;51.758;5.784;2023-06-22T04:31:35;101752.27;;;19.50;66.80
80627;BME280;69982;51.758;5.784;2023-06-22T04:34:05;101752.35;;;19.57;66.69
80627;BME280;69982;51.758;5.784;2023-06-22T04:36:36;101755.96;;;19.66;66.65
80627;BME280;69982;51.758;5.784;2023-06-22T04:39:05;101755.49;;;19.75;66.60
80627;BME280;69982;51.758;5.784;2023-06-22T04:41:32;101746.84;;;19.82;66.46
80627;BME280;69982;51.758;5.784;2023-06-22T04:44:09;101747.46;;;19.87;66.48
80627;BME280;69982;51.758;5.784;2023-06-22T04:46:36;101748.88;;;19.91;66.40
80627;BME280;69982;51.758;5.784;2023-06-22T04:49:08;101743.71;;;19.95;66.55
80627;BME280;69982;51.758;5.784;2023-06-22T04:51:40;101732.05;;;19.94;66.66
80627;BME280;69982;51.758;5.784;2023-06-22T04:54:08;101737.13;;;19.99;66.65
80627;BME280;69982;51.758;5.784;2023-06-22T04:56:35;101738.44;;;20.02;66.65
80627;BME280;69982;51.758;5.784;2023-06-22T04:59:02;101740.54;;;20.06;66.80
80627;BME280;69982;51.758;5.784;2023-06-22T05:01:31;101748.84;;;20.13;66.77
80627;BME280;69982;51.758;5.784;2023-06-22T05:03:58;101751.39;;;20.18;66.81
80627;BME280;69982;51.758;5.784;2023-06-22T05:06:27;101756.59;;;20.26;66.65
80627;BME280;69982;51.758;5.784;2023-06-22T05:08:54;101747.63;;;20.32;66.72
80627;BME280;69982;51.758;5.784;2023-06-22T05:11:27;101753.96;;;20.41;66.73
80627;BME280;69982;51.758;5.784;2023-06-22T05:13:54;101753.67;;;20.47;66.48
80627;BME280;69982;51.758;5.784;2023-06-22T05:16:21;101753.14;;;20.52;66.44
80627;BME280;69982;51.758;5.784;2023-06-22T05:18:54;101751.91;;;20.56;66.29
80627;BME280;69982;51.758;5.784;2023-06-22T05:21:26;101751.61;;;20.60;66.28
80627;BME280;69982;51.758;5.784;2023-06-22T05:23:53;101750.02;;;20.67;66.26
80627;BME280;69982;51.758;5.784;2023-06-22T05:26:20;101750.19;;;20.71;66.38
80627;BME280;69982;51.758;5.784;2023-06-22T05:28:47;101752.10;;;20.75;66.24
80627;BME280;69982;51.758;5.784;2023-06-22T05:31:15;101754.42;;;20.80;66.23
80627;BME280;69982;51.758;5.784;2023-06-22T05:33:43;101759.85;;;20.87;66.34
80627;BME280;69982;51.758;5.784;2023-06-22T05:36:09;101761.73;;;20.95;66.18
80627;BME280;69982;51.758;5.784;2023-06-22T05:38:36;101765.29;;;21.04;66.24
80627;BME280;69982;51.758;5.784;2023-06-22T05:41:02;101762.95;;;21.11;66.18
80627;BME280;69982;51.758;5.784;2023-06-22T05:43:29;101763.45;;;21.17;66.09
80627;BME280;69982;51.758;5.784;2023-06-22T05:45:55;101763.91;;;21.23;65.96
80627;BME280;69982;51.758;5.784;2023-06-22T05:48:22;101769.48;;;21.30;65.87
80627;BME280;69982;51.758;5.784;2023-06-22T05:50:49;101767.08;;;21.37;65.91
80627;BME280;69982;51.758;5.784;2023-06-22T05:53:15;101767.45;;;21.44;65.73
80627;BME280;69982;51.758;5.784;2023-06-22T05:55:42;101772.13;;;21.50;65.68
80627;BME280;69982;51.758;5.784;2023-06-22T05:58:09;101769.44;;;21.56;65.76
80627;BME280;69982;51.758;5.784;2023-06-22T06:00:35;101763.05;;;21.60;65.39
80627;BME280;69982;51.758;5.784;2023-06-22T06:03:02;101761.32;;;21.68;65.17
80627;BME280;69982;51.758;5.784;2023-06-22T06:05:33;101761.13;;;21.77;65.17
80627;BME280;69982;51.758;5.784;2023-06-22T06:08:01;101758.11;;;21.86;64.71
80627;BME280;69982;51.758;5.784;2023-06-22T06:10:27;101765.58;;;21.96;64.59
80627;BME280;69982;51.758;5.784;2023-06-22T06:12:56;101763.09;;;22.06;64.28
80627;BME280;69982;51.758;5.784;2023-06-22T06:15:22;101766.20;;;22.14;64.04
80627;BME280;69982;51.758;5.784;2023-06-22T06:17:50;101765.70;;;22.21;63.87
80627;BME280;69982;51.758;5.784;2023-06-22T06:20:20;101762.26;;;22.28;63.92
80627;BME280;69982;51.758;5.784;2023-06-22T06:22:47;101751.64;;;22.33;63.57
80627;BME280;69982;51.758;5.784;2023-06-22T06:25:14;101755.85;;;22.40;63.57
80627;BME280;69982;51.758;5.784;2023-06-22T06:27:46;101749.73;;;22.44;63.30
80627;BME280;69982;51.758;5.784;2023-06-22T06:30:14;101747.33;;;22.48;63.33
80627;BME280;69982;51.758;5.784;2023-06-22T06:32:41;101738.81;;;22.48;63.38
80627;BME280;69982;51.758;5.784;2023-06-22T06:35:12;101739.71;;;22.53;63.45
80627;BME280;69982;51.758;5.784;2023-06-22T06:37:44;101739.69;;;22.57;63.45
80627;BME280;69982;51.758;5.784;2023-06-22T06:40:11;101738.30;;;22.60;63.46
80627;BME280;69982;51.758;5.784;2023-06-22T06:42:38;101746.66;;;22.64;63.21
80627;BME280;69982;51.758;5.784;2023-06-22T06:45:10;101742.06;;;22.66;63.45
80627;BME280;69982;51.758;5.784;2023-06-22T06:47:37;101743.74;;;22.68;63.16
80627;BME280;69982;51.758;5.784;2023-06-22T06:50:04;101740.27;;;22.70;63.12
80627;BME280;69982;51.758;5.784;2023-06-22T06:52:31;101739.42;;;22.76;62.92
80627;BME280;69982;51.758;5.784;2023-06-22T06:54:57;101740.23;;;22.82;62.63
80627;BME280;69982;51.758;5.784;2023-06-22T06:57:23;101738.50;;;22.89;62.91
80627;BME280;69982;51.758;5.784;2023-06-22T06:59:55;101731.23;;;22.96;62.64
80627;BME280;69982;51.758;5.784;2023-06-22T07:02:23;101730.27;;;23.04;62.43
80627;BME280;69982;51.758;5.784;2023-06-22T07:04:49;101728.00;;;23.10;62.31
80627;BME280;69982;51.758;5.784;2023-06-22T07:07:16;101721.66;;;23.13;62.00
80627;BME280;69982;51.758;5.784;2023-06-22T07:09:42;101717.52;;;23.14;61.91
80627;BME280;69982;51.758;5.784;2023-06-22T07:12:08;101718.90;;;23.20;61.91
80627;BME280;69982;51.758;5.784;2023-06-22T07:14:35;101717.85;;;23.24;61.77
80627;BME280;69982;51.758;5.784;2023-06-22T07:17:01;101720.89;;;23.27;61.60
80627;BME280;69982;51.758;5.784;2023-06-22T07:19:28;101721.36;;;23.32;61.72
80627;BME280;69982;51.758;5.784;2023-06-22T07:21:54;101718.94;;;23.34;61.50
80627;BME280;69982;51.758;5.784;2023-06-22T07:24:21;101708.58;;;23.34;61.45
80627;BME280;69982;51.758;5.784;2023-06-22T07:26:49;101711.27;;;23.39;61.33
80627;BME280;69982;51.758;5.784;2023-06-22T07:29:17;101706.94;;;23.40;61.00
80627;BME280;69982;51.758;5.784;2023-06-22T07:31:44;101709.45;;;23.44;61.06
80627;BME280;69982;51.758;5.784;2023-06-22T07:34:11;101707.94;;;23.46;60.73
80627;BME280;69982;51.758;5.784;2023-06-22T07:36:37;101707.61;;;23.46;60.52
80627;BME280;69982;51.758;5.784;2023-06-22T07:39:04;101708.02;;;23.46;60.79
80627;BME280;69982;51.758;5.784;2023-06-22T07:41:31;101701.57;;;23.48;60.62
80627;BME280;69982;51.758;5.784;2023-06-22T07:43:57;101702.69;;;23.50;60.92
80627;BME280;69982;51.758;5.784;2023-06-22T07:46:24;101704.48;;;23.55;60.81
80627;BME280;69982;51.758;5.784;2023-06-22T07:48:50;101707.65;;;23.63;60.50
80627;BME280;69982;51.758;5.784;2023-06-22T07:51:16;101707.41;;;23.69;60.43
80627;BME280;69982;51.758;5.784;2023-06-22T07:53:43;101709.23;;;23.76;60.13
80627;BME280;69982;51.758;5.784;2023-06-22T07:56:10;101705.35;;;23.80;60.01
80627;BME280;69982;51.758;5.784;2023-06-22T07:58:37;101704.73;;;23.85;59.80
80627;BME280;69982;51.758;5.784;2023-06-22T08:01:03;101704.21;;;23.88;59.87
80627;BME280;69982;51.758;5.784;2023-06-22T08:03:30;101698.56;;;23.93;59.62
80627;BME280;69982;51.758;5.784;2023-06-22T08:05:56;101690.58;;;23.97;59.52
80627;BME280;69982;51.758;5.784;2023-06-22T08:08:22;101683.40;;;24.00;59.37
80627;BME280;69982;51.758;5.784;2023-06-22T08:10:49;101672.84;;;24.04;59.33
80627;BME280;69982;51.758;5.784;2023-06-22T08:13:15;101664.80;;;24.08;59.58
80627;BME280;69982;51.758;5.784;2023-06-22T08:15:41;101664.30;;;24.14;59.60
80627;BME280;69982;51.758;5.784;2023-06-22T08:18:08;101657.13;;;24.19;59.57
80627;BME280;69982;51.758;5.784;2023-06-22T08:20:34;101657.09;;;24.26;59.72
80627;BME280;69982;51.758;5.784;2023-06-22T08:23:01;101650.73;;;24.31;59.19
80627;BME280;69982;51.758;5.784;2023-06-22T08:25:35;101652.22;;;24.40;59.03
80627;BME280;69982;51.758;5.784;2023-06-22T08:28:02;101650.54;;;24.46;58.27
80627;BME280;69982;51.758;5.784;2023-06-22T08:30:29;101646.71;;;24.51;58.21
80627;BME280;69982;51.758;5.784;2023-06-22T08:32:55;101651.21;;;24.55;58.20
80627;BME280;69982;51.758;5.784;2023-06-22T08:35:22;101646.98;;;24.62;58.19
80627;BME280;69982;51.758;5.784;2023-06-22T08:37:49;101639.27;;;24.66;57.99
80627;BME280;69982;51.758;5.784;2023-06-22T08:40:20;101643.21;;;24.75;57.73
80627;BME280;69982;51.758;5.784;2023-06-22T08:42:47;101641.16;;;24.82;57.82
80627;BME280;69982;51.758;5.784;2023-06-22T08:45:14;101638.44;;;24.91;57.48
80627;BME280;69982;51.758;5.784;2023-06-22T08:47:41;101640.42;;;24.99;57.15
80627;BME280;69982;51.758;5.784;2023-06-22T08:50:11;101628.52;;;25.04;57.12
80627;BME280;69982;51.758;5.784;2023-06-22T08:52:39;101629.98;;;25.11;56.83
80627;BME280;69982;51.758;5.784;2023-06-22T08:55:08;101627.48;;;25.18;56.93
80627;BME280;69982;51.758;5.784;2023-06-22T08:57:35;101631.34;;;25.27;56.87
80627;BME280;69982;51.758;5.784;2023-06-22T09:00:06;101633.20;;;25.34;56.45
80627;BME280;69982;51.758;5.784;2023-06-22T09:02:37;101628.36;;;25.41;55.78
80627;BME280;69982;51.758;5.784;2023-06-22T09:05:06;101624.89;;;25.47;55.28
80627;BME280;69982;51.758;5.784;2023-06-22T09:07:33;101627.63;;;25.54;54.65
80627;BME280;69982;51.758;5.784;2023-06-22T09:10:01;101624.34;;;25.59;54.36
80627;BME280;69982;51.758;5.784;2023-06-22T09:12:29;101622.45;;;25.64;54.25
80627;BME280;69982;51.758;5.784;2023-06-22T09:14:56;101623.40;;;25.68;54.16
80627;BME280;69982;51.758;5.784;2023-06-22T09:17:23;101616.34;;;25.72;54.09
80627;BME280;69982;51.758;5.784;2023-06-22T09:19:49;101620.42;;;25.77;53.71
80627;BME280;69982;51.758;5.784;2023-06-22T09:22:15;101616.84;;;25.83;53.67
80627;BME280;69982;51.758;5.784;2023-06-22T09:24:42;101616.98;;;25.88;53.33
80627;BME280;69982;51.758;5.784;2023-06-22T09:27:08;101612.06;;;25.92;53.18
80627;BME280;69982;51.758;5.784;2023-06-22T09:29:34;101611.23;;;25.94;52.62
80627;BME280;69982;51.758;5.784;2023-06-22T09:32:01;101611.41;;;25.95;52.61
80627;BME280;69982;51.758;5.784;2023-06-22T09:34:27;101609.60;;;25.94;52.43
80627;BME280;69982;51.758;5.784;2023-06-22T09:36:54;101611.52;;;25.95;52.79
80627;BME280;69982;51.758;5.784;2023-06-22T09:39:21;101610.45;;;25.95;52.88
80627;BME280;69982;51.758;5.784;2023-06-22T09:41:47;101608.91;;;25.93;52.65
80627;BME280;69982;51.758;5.784;2023-06-22T09:44:14;101606.13;;;25.90;52.25
80627;BME280;69982;51.758;5.784;2023-06-22T09:46:40;101603.30;;;25.85;51.92
80627;BME280;69982;51.758;5.784;2023-06-22T09:49:06;101600.68;;;25.81;51.87
80627;BME280;69982;51.758;5.784;2023-06-22T09:51:32;101604.57;;;25.75;51.81
80627;BME280;69982;51.758;5.784;2023-06-22T09:53:59;101613.36;;;25.69;51.79
80627;BME280;69982;51.758;5.784;2023-06-22T09:56:26;101605.85;;;25.62;51.72
80627;BME280;69982;51.758;5.784;2023-06-22T09:58:55;101605.39;;;25.55;51.65
80627;BME280;69982;51.758;5.784;2023-06-22T10:01:22;101603.75;;;25.47;51.73
80627;BME280;69982;51.758;5.784;2023-06-22T10:03:48;101604.27;;;25.43;51.82
80627;BME280;69982;51.758;5.784;2023-06-22T10:06:15;101604.14;;;25.39;52.15
80627;BME280;69982;51.758;5.784;2023-06-22T10:08:42;101605.45;;;25.36;52.49
80627;BME280;69982;51.758;5.784;2023-06-22T10:11:08;101606.88;;;25.33;52.73
80627;BME280;69982;51.758;5.784;2023-06-22T10:13:34;101606.31;;;25.29;53.43
80627;BME280;69982;51.758;5.784;2023-06-22T10:16:01;101604.83;;;25.25;53.71
80627;BME280;69982;51.758;5.784;2023-06-22T10:18:27;101608.13;;;25.24;53.86
80627;BME280;69982;51.758;5.784;2023-06-22T10:20:53;101607.92;;;25.22;53.87
80627;BME280;69982;51.758;5.784;2023-06-22T10:23:20;101605.59;;;25.19;53.88
80627;BME280;69982;51.758;5.784;2023-06-22T10:25:46;101605.27;;;25.15;53.85
80627;BME280;69982;51.758;5.784;2023-06-22T10:28:13;101606.10;;;25.12;53.86
80627;BME280;69982;51.758;5.784;2023-06-22T10:30:40;101594.98;;;25.07;54.11
80627;BME280;69982;51.758;5.784;2023-06-22T10:33:10;101593.59;;;25.04;53.91
80627;BME280;69982;51.758;5.784;2023-06-22T10:35:37;101592.51;;;25.03;53.85
80627;BME280;69982;51.758;5.784;2023-06-22T10:38:04;101589.53;;;25.00;53.78
80627;BME280;69982;51.758;5.784;2023-06-22T10:40:31;101586.61;;;24.98;53.81
80627;BME280;69982;51.758;5.784;2023-06-22T10:42:57;101583.95;;;24.96;53.64
80627;BME280;69982;51.758;5.784;2023-06-22T10:45:24;101580.60;;;24.94;53.87
80627;BME280;69982;51.758;5.784;2023-06-22T10:47:50;101573.33;;;24.92;53.83
80627;BME280;69982;51.758;5.784;2023-06-22T10:50:17;101567.75;;;24.89;53.77
80627;BME280;69982;51.758;5.784;2023-06-22T10:52:44;101568.45;;;24.88;53.54
80627;BME280;69982;51.758;5.784;2023-06-22T10:55:10;101567.20;;;24.84;53.44
80627;BME280;69982;51.758;5.784;2023-06-22T10:57:37;101570.34;;;24.83;53.59
80627;BME280;69982;51.758;5.784;2023-06-22T11:00:05;101573.00;;;24.80;53.22
80627;BME280;69982;51.758;5.784;2023-06-22T11:02:32;101571.48;;;24.77;53.50
80627;BME280;69982;51.758;5.784;2023-06-22T11:04:58;101571.42;;;24.77;53.86
80627;BME280;69982;51.758;5.784;2023-06-22T11:07:29;101571.14;;;24.74;53.71
80627;BME280;69982;51.758;5.784;2023-06-22T11:09:56;101574.16;;;24.73;53.98
80627;BME280;69982;51.758;5.784;2023-06-22T11:12:22;101574.77;;;24.70;53.97
80627;BME280;69982;51.758;5.784;2023-06-22T11:14:49;101579.09;;;24.68;53.69
80627;BME280;69982;51.758;5.784;2023-06-22T11:17:18;101585.56;;;24.64;53.70
80627;BME280;69982;51.758;5.784;2023-06-22T11:19:44;101592.45;;;24.59;53.46
80627;BME280;69982;51.758;5.784;2023-06-22T11:22:11;101599.17;;;24.55;53.95
80627;BME280;69982;51.758;5.784;2023-06-22T11:24:37;101602.22;;;24.50;54.25
80627;BME280;69982;51.758;5.784;2023-06-22T11:27:04;101610.55;;;24.50;54.97
80627;BME280;69982;51.758;5.784;2023-06-22T11:29:30;101617.98;;;24.47;55.96
80627;BME280;69982;51.758;5.784;2023-06-22T11:32:02;101620.38;;;24.44;56.98
80627;BME280;69982;51.758;5.784;2023-06-22T11:34:28;101614.44;;;24.39;57.41
80627;BME280;69982;51.758;5.784;2023-06-22T11:36:55;101617.56;;;24.33;58.31
80627;BME280;69982;51.758;5.784;2023-06-22T11:39:22;101620.42;;;24.28;59.58
80627;BME280;69982;51.758;5.784;2023-06-22T11:41:48;101623.87;;;24.26;59.82
80627;BME280;69982;51.758;5.784;2023-06-22T11:44:15;101629.90;;;24.24;60.61
80627;BME280;69982;51.758;5.784;2023-06-22T11:46:41;101626.99;;;24.24;61.00
80627;BME280;69982;51.758;5.784;2023-06-22T11:49:08;101621.85;;;24.23;61.55
80627;BME280;69982;51.758;5.784;2023-06-22T11:51:34;101610.51;;;24.22;61.57
80627;BME280;69982;51.758;5.784;2023-06-22T11:54:01;101610.73;;;24.20;61.61
80627;BME280;69982;51.758;5.784;2023-06-22T11:56:28;101611.98;;;24.17;62.01
80627;BME280;69982;51.758;5.784;2023-06-22T11:58:54;101610.77;;;24.13;62.51
80627;BME280;69982;51.758;5.784;2023-06-22T12:01:21;101610.23;;;24.09;62.86
80627;BME280;69982;51.758;5.784;2023-06-22T12:03:47;101605.90;;;24.05;62.96
80627;BME280;69982;51.758;5.784;2023-06-22T12:06:14;101612.81;;;24.02;62.92
80627;BME280;69982;51.758;5.784;2023-06-22T12:08:41;101624.26;;;23.97;62.56
80627;BME280;69982;51.758;5.784;2023-06-22T12:11:07;101629.64;;;23.90;62.81
80627;BME280;69982;51.758;5.784;2023-06-22T12:13:33;101626.11;;;23.83;62.85
80627;BME280;69982;51.758;5.784;2023-06-22T12:16:00;101625.80;;;23.74;63.19
80627;BME280;69982;51.758;5.784;2023-06-22T12:18:26;101620.48;;;23.67;63.98
80627;BME280;69982;51.758;5.784;2023-06-22T12:20:53;101610.36;;;23.62;64.58
80627;BME280;69982;51.758;5.784;2023-06-22T12:23:19;101592.59;;;23.57;64.78
80627;BME280;69982;51.758;5.784;2023-06-22T12:25:45;101570.14;;;23.53;64.94
80627;BME280;69982;51.758;5.784;2023-06-22T12:28:12;101548.41;;;23.49;65.43
80627;BME280;69982;51.758;5.784;2023-06-22T12:30:38;101540.27;;;23.47;65.62
80627;BME280;69982;51.758;5.784;2023-06-22T12:33:04;101534.60;;;23.45;65.84
80627;BME280;69982;51.758;5.784;2023-06-22T12:35:31;101542.20;;;23.41;66.14
80627;BME280;69982;51.758;5.784;2023-06-22T12:37:58;101547.42;;;23.36;66.24
80627;BME280;69982;51.758;5.784;2023-06-22T12:40:24;101546.57;;;23.29;66.02
80627;BME280;69982;51.758;5.784;2023-06-22T12:42:51;101548.41;;;23.25;66.26
80627;BME280;69982;51.758;5.784;2023-06-22T12:45:17;101550.11;;;23.19;66.24
80627;BME280;69982;51.758;5.784;2023-06-22T12:47:45;101549.73;;;23.15;66.53
80627;BME280;69982;51.758;5.784;2023-06-22T12:50:11;101547.52;;;23.12;66.34
80627;BME280;69982;51.758;5.784;2023-06-22T12:52:39;101544.97;;;23.08;66.37
80627;BME280;69982;51.758;5.784;2023-06-22T12:55:06;101543.98;;;23.04;66.47
80627;BME280;69982;51.758;5.784;2023-06-22T12:57:33;101543.58;;;22.99;66.68
80627;BME280;69982;51.758;5.784;2023-06-22T12:59:59;101541.02;;;22.95;66.85
80627;BME280;69982;51.758;5.784;2023-06-22T13:02:27;101538.45;;;22.93;66.73